createdAt,value
2018-11-03T00:00:21.983Z,1011.44
2018-11-03T00:01:21.971Z,1011.44
2018-11-03T00:02:21.965Z,1011.43
2018-11-03T00:03:21.959Z,1011.41
2018-11-03T00:04:21.957Z,1011.43
2018-11-03T00:05:21.948Z,1011.40
2018-11-03T00:06:21.942Z,1011.43
2018-11-03T00:07:21.938Z,1011.41
2018-11-03T00:08:21.939Z,1011.43
2018-11-03T00:09:21.925Z,1011.44
2018-11-03T00:10:21.923Z,1011.41
2018-11-03T00:11:21.912Z,1011.42
2018-11-03T00:12:21.908Z,1011.42
2018-11-03T00:13:21.905Z,1011.45
2018-11-03T00:14:21.896Z,1011.45
2018-11-03T00:15:21.890Z,1011.40
2018-11-03T00:16:21.886Z,1011.43
2018-11-03T00:17:21.881Z,1011.42
2018-11-03T00:18:21.873Z,1011.42
2018-11-03T00:19:21.868Z,1011.42
2018-11-03T00:20:21.902Z,1011.42
2018-11-03T00:21:21.872Z,1011.38
2018-11-03T00:22:21.856Z,1011.37
2018-11-03T00:23:21.862Z,1011.35
2018-11-03T00:24:21.840Z,1011.40
2018-11-03T00:25:21.833Z,1011.42
2018-11-03T00:26:21.831Z,1011.45
2018-11-03T00:27:21.823Z,1011.47
2018-11-03T00:28:21.815Z,1011.48
2018-11-03T00:29:21.811Z,1011.46
2018-11-03T00:30:21.808Z,1011.47
2018-11-03T00:31:21.801Z,1011.51
2018-11-03T00:32:21.802Z,1011.52
2018-11-03T00:33:21.816Z,1011.52
2018-11-03T00:34:21.786Z,1011.53
2018-11-03T00:35:21.780Z,1011.44
2018-11-03T00:36:21.773Z,1011.47
2018-11-03T00:37:21.766Z,1011.47
2018-11-03T00:38:21.760Z,1011.45
2018-11-03T00:39:21.755Z,1011.40
2018-11-03T00:40:21.786Z,1011.41
2018-11-03T00:41:21.745Z,1011.39
2018-11-03T00:42:21.737Z,1011.39
2018-11-03T00:43:21.728Z,1011.40
2018-11-03T00:44:21.728Z,1011.38
2018-11-03T00:45:21.722Z,1011.38
2018-11-03T00:46:21.714Z,1011.33
2018-11-03T00:47:21.709Z,1011.34
2018-11-03T00:48:21.705Z,1011.30
2018-11-03T00:49:21.697Z,1011.24
2018-11-03T00:50:21.692Z,1011.24
2018-11-03T00:51:21.688Z,1011.19
2018-11-03T00:52:21.679Z,1011.21
2018-11-03T00:53:21.675Z,1011.21
2018-11-03T00:54:21.670Z,1011.17
2018-11-03T00:55:21.664Z,1011.20
2018-11-03T00:56:21.662Z,1011.18
2018-11-03T00:57:21.655Z,1011.20
2018-11-03T00:58:21.648Z,1011.17
2018-11-03T00:59:21.643Z,1011.20
2018-11-03T01:00:21.633Z,1011.20
2018-11-03T01:01:21.631Z,1011.17
2018-11-03T01:02:21.623Z,1011.17
2018-11-03T01:03:21.616Z,1011.19
2018-11-03T01:04:21.617Z,1011.14
2018-11-03T01:05:21.605Z,1011.15
2018-11-03T01:06:21.601Z,1011.14
2018-11-03T01:07:21.598Z,1011.12
2018-11-03T01:08:21.588Z,1011.10
2018-11-03T01:09:21.585Z,1011.14
2018-11-03T01:10:21.576Z,1011.13
2018-11-03T01:11:21.577Z,1011.18
2018-11-03T01:12:21.563Z,1011.20
2018-11-03T01:13:21.753Z,1011.23
2018-11-03T01:14:21.555Z,1011.20
2018-11-03T01:15:21.556Z,1011.27
2018-11-03T01:16:21.542Z,1011.25
2018-11-03T01:17:21.554Z,1011.30
2018-11-03T01:18:21.529Z,1011.33
2018-11-03T01:19:21.565Z,1011.32
2018-11-03T01:20:21.518Z,1011.34
2018-11-03T01:21:21.526Z,1011.35
2018-11-03T01:22:21.508Z,1011.37
2018-11-03T01:23:21.502Z,1011.35
2018-11-03T01:24:21.496Z,1011.33
2018-11-03T01:25:21.493Z,1011.32
2018-11-03T01:26:21.483Z,1011.29
2018-11-03T01:27:21.480Z,1011.27
2018-11-03T01:28:21.471Z,1011.29
2018-11-03T01:29:21.467Z,1011.31
2018-11-03T01:30:21.461Z,1011.31
2018-11-03T01:31:21.457Z,1011.33
2018-11-03T01:32:21.467Z,1011.33
2018-11-03T01:33:21.443Z,1011.41
2018-11-03T01:34:21.462Z,1011.46
2018-11-03T01:35:21.431Z,1011.48
2018-11-03T01:36:21.424Z,1011.45
2018-11-03T01:37:21.422Z,1011.51
2018-11-03T01:38:21.413Z,1011.53
2018-11-03T01:39:21.406Z,1011.52
2018-11-03T01:40:21.400Z,1011.54
2018-11-03T01:41:21.392Z,1011.52
2018-11-03T01:42:21.389Z,1011.54
2018-11-03T01:43:21.380Z,1011.53
2018-11-03T01:44:22.197Z,1011.54
2018-11-03T01:45:21.410Z,1011.53
2018-11-03T01:46:21.364Z,1011.53
2018-11-03T01:47:21.359Z,1011.53
2018-11-03T01:48:21.352Z,1011.54
2018-11-03T01:49:21.350Z,1011.48
2018-11-03T01:50:21.342Z,1011.50
2018-11-03T01:51:21.336Z,1011.50
2018-11-03T01:52:21.330Z,1011.48
2018-11-03T01:53:21.323Z,1011.48
2018-11-03T01:54:21.321Z,1011.53
2018-11-03T01:55:21.336Z,1011.50
2018-11-03T01:56:21.303Z,1011.54
2018-11-03T01:57:21.301Z,1011.53
2018-11-03T01:58:21.293Z,1011.53
2018-11-03T01:59:21.290Z,1011.53
2018-11-03T02:00:21.282Z,1011.52
2018-11-03T02:01:21.277Z,1011.53
2018-11-03T02:02:21.272Z,1011.48
2018-11-03T02:03:21.268Z,1011.48
2018-11-03T02:04:21.261Z,1011.46
2018-11-03T02:05:21.255Z,1011.42
2018-11-03T02:06:21.246Z,1011.40
2018-11-03T02:07:21.245Z,1011.42
2018-11-03T02:08:21.234Z,1011.38
2018-11-03T02:09:21.224Z,1011.42
2018-11-03T02:10:21.225Z,1011.43
2018-11-03T02:11:21.218Z,1011.43
2018-11-03T02:12:21.210Z,1011.43
2018-11-03T02:13:21.205Z,1011.43
2018-11-03T02:14:21.201Z,1011.44
2018-11-03T02:15:21.193Z,1011.49
2018-11-03T02:16:21.193Z,1011.52
2018-11-03T02:17:21.182Z,1011.54
2018-11-03T02:18:21.177Z,1011.55
2018-11-03T02:19:21.171Z,1011.53
2018-11-03T02:20:21.167Z,1011.51
2018-11-03T02:21:21.159Z,1011.49
2018-11-03T02:22:21.153Z,1011.54
2018-11-03T02:23:21.148Z,1011.53
2018-11-03T02:24:21.172Z,1011.55
2018-11-03T02:25:21.137Z,1011.55
2018-11-03T02:26:21.133Z,1011.56
2018-11-03T02:27:21.125Z,1011.51
2018-11-03T02:28:21.121Z,1011.50
2018-11-03T02:29:21.110Z,1011.50
2018-11-03T02:30:21.107Z,1011.52
2018-11-03T02:31:21.100Z,1011.51
2018-11-03T02:32:21.099Z,1011.49
2018-11-03T02:33:21.090Z,1011.56
2018-11-03T02:34:21.087Z,1011.58
2018-11-03T02:35:21.078Z,1011.60
2018-11-03T02:36:21.073Z,1011.61
2018-11-03T02:37:21.070Z,1011.59
2018-11-03T02:38:21.060Z,1011.59
2018-11-03T02:39:21.056Z,1011.54
2018-11-03T02:40:21.066Z,1011.54
2018-11-03T02:41:21.040Z,1011.52
2018-11-03T02:42:21.039Z,1011.54
2018-11-03T02:43:21.036Z,1011.54
2018-11-03T02:44:21.064Z,1011.54
2018-11-03T02:45:21.023Z,1011.59
2018-11-03T02:46:21.010Z,1011.58
2018-11-03T02:47:21.008Z,1011.54
2018-11-03T02:48:21.005Z,1011.55
2018-11-03T02:49:20.997Z,1011.55
2018-11-03T02:50:20.994Z,1011.55
2018-11-03T02:51:20.988Z,1011.55
2018-11-03T02:52:20.983Z,1011.58
2018-11-03T02:53:20.978Z,1011.55
2018-11-03T02:54:20.990Z,1011.59
2018-11-03T02:55:20.963Z,1011.57
2018-11-03T02:56:20.959Z,1011.57
2018-11-03T02:57:20.953Z,1011.58
2018-11-03T02:58:20.958Z,1011.56
2018-11-03T02:59:20.940Z,1011.61
2018-11-03T03:00:20.939Z,1011.63
2018-11-03T03:01:20.926Z,1011.63
2018-11-03T03:02:20.926Z,1011.61
2018-11-03T03:03:20.922Z,1011.65
2018-11-03T03:04:20.912Z,1011.65
2018-11-03T03:05:20.924Z,1011.67
2018-11-03T03:06:20.898Z,1011.63
2018-11-03T03:07:20.894Z,1011.66
2018-11-03T03:08:20.892Z,1011.69
2018-11-03T03:09:20.886Z,1011.67
2018-11-03T03:10:20.881Z,1011.71
2018-11-03T03:11:20.869Z,1011.68
2018-11-03T03:12:20.865Z,1011.71
2018-11-03T03:13:20.855Z,1011.72
2018-11-03T03:14:20.848Z,1011.72
2018-11-03T03:15:20.843Z,1011.73
2018-11-03T03:16:21.315Z,1011.75
2018-11-03T03:17:20.873Z,1011.73
2018-11-03T03:18:20.827Z,1011.71
2018-11-03T03:19:20.828Z,1011.72
2018-11-03T03:20:20.815Z,1011.72
2018-11-03T03:21:20.808Z,1011.72
2018-11-03T03:22:20.840Z,1011.71
2018-11-03T03:23:20.796Z,1011.71
2018-11-03T03:24:20.790Z,1011.66
2018-11-03T03:25:20.785Z,1011.66
2018-11-03T03:26:20.779Z,1011.65
2018-11-03T03:27:20.770Z,1011.69
2018-11-03T03:28:20.771Z,1011.71
2018-11-03T03:29:20.833Z,1011.72
2018-11-03T03:30:20.754Z,1011.68
2018-11-03T03:31:20.749Z,1011.69
2018-11-03T03:32:20.744Z,1011.71
2018-11-03T03:33:20.735Z,1011.67
2018-11-03T03:34:20.761Z,1011.70
2018-11-03T03:35:20.722Z,1011.66
2018-11-03T03:36:20.721Z,1011.69
2018-11-03T03:37:20.707Z,1011.70
2018-11-03T03:38:20.707Z,1011.72
2018-11-03T03:39:20.708Z,1011.72
2018-11-03T03:40:20.697Z,1011.71
2018-11-03T03:41:20.691Z,1011.68
2018-11-03T03:42:20.679Z,1011.71
2018-11-03T03:43:20.680Z,1011.73
2018-11-03T03:44:20.675Z,1011.76
2018-11-03T03:45:20.669Z,1011.76
2018-11-03T03:46:20.656Z,1011.77
2018-11-03T03:47:20.648Z,1011.79
2018-11-03T03:48:20.647Z,1011.80
2018-11-03T03:49:20.639Z,1011.83
2018-11-03T03:50:20.660Z,1011.79
2018-11-03T03:51:20.626Z,1011.83
2018-11-03T03:52:20.621Z,1011.84
2018-11-03T03:53:20.614Z,1011.85
2018-11-03T03:54:20.607Z,1011.89
2018-11-03T03:55:20.609Z,1011.94
2018-11-03T03:56:20.599Z,1011.92
2018-11-03T03:57:20.590Z,1011.93
2018-11-03T03:58:20.582Z,1011.94
2018-11-03T03:59:20.579Z,1011.92
2018-11-03T04:00:20.571Z,1011.94
2018-11-03T04:01:20.567Z,1011.87
2018-11-03T04:02:20.561Z,1011.90
2018-11-03T04:03:20.554Z,1011.90
2018-11-03T04:04:20.557Z,1011.92
2018-11-03T04:05:20.543Z,1011.94
2018-11-03T04:06:20.536Z,1012.00
2018-11-03T04:07:20.529Z,1011.98
2018-11-03T04:08:20.525Z,1012.03
2018-11-03T04:09:20.522Z,1012.04
2018-11-03T04:10:20.515Z,1012.07
2018-11-03T04:11:20.506Z,1012.10
2018-11-03T04:12:20.504Z,1012.04
2018-11-03T04:13:20.490Z,1012.08
2018-11-03T04:14:20.490Z,1012.05
2018-11-03T04:15:20.482Z,1012.08
2018-11-03T04:16:20.481Z,1012.10
2018-11-03T04:17:20.473Z,1012.08
2018-11-03T04:18:41.474Z,1012.09
2018-11-03T04:19:20.489Z,1012.08
2018-11-03T04:20:20.467Z,1012.10
2018-11-03T04:21:20.446Z,1012.15
2018-11-03T04:22:20.437Z,1012.12
2018-11-03T04:23:20.437Z,1012.13
2018-11-03T04:24:20.435Z,1012.15
2018-11-03T04:25:20.426Z,1012.19
2018-11-03T04:26:20.424Z,1012.22
2018-11-03T04:27:20.415Z,1012.19
2018-11-03T04:28:20.409Z,1012.23
2018-11-03T04:29:20.404Z,1012.27
2018-11-03T04:30:20.397Z,1012.31
2018-11-03T04:31:20.394Z,1012.36
2018-11-03T04:32:20.386Z,1012.34
2018-11-03T04:33:20.378Z,1012.35
2018-11-03T04:34:20.378Z,1012.35
2018-11-03T04:35:20.367Z,1012.38
2018-11-03T04:36:20.363Z,1012.38
2018-11-03T04:37:20.357Z,1012.37
2018-11-03T04:38:20.358Z,1012.38
2018-11-03T04:39:20.345Z,1012.37
2018-11-03T04:40:20.342Z,1012.38
2018-11-03T04:41:20.334Z,1012.37
2018-11-03T04:42:20.327Z,1012.37
2018-11-03T04:43:20.322Z,1012.34
2018-11-03T04:44:20.318Z,1012.34
2018-11-03T04:45:20.333Z,1012.36
2018-11-03T04:46:20.305Z,1012.38
2018-11-03T04:47:20.299Z,1012.41
2018-11-03T04:48:20.472Z,1012.39
2018-11-03T04:49:20.294Z,1012.47
2018-11-03T04:50:20.282Z,1012.46
2018-11-03T04:51:20.281Z,1012.48
2018-11-03T04:52:20.271Z,1012.46
2018-11-03T04:53:20.261Z,1012.48
2018-11-03T04:54:20.260Z,1012.47
2018-11-03T04:55:20.414Z,1012.50
2018-11-03T04:56:20.243Z,1012.50
2018-11-03T04:57:20.240Z,1012.49
2018-11-03T04:58:20.238Z,1012.51
2018-11-03T04:59:20.228Z,1012.49
2018-11-03T05:00:20.222Z,1012.48
2018-11-03T05:01:20.217Z,1012.49
2018-11-03T05:02:20.210Z,1012.51
2018-11-03T05:03:20.203Z,1012.51
2018-11-03T05:04:20.203Z,1012.51
2018-11-03T05:05:20.192Z,1012.57
2018-11-03T05:06:20.184Z,1012.48
2018-11-03T05:07:20.180Z,1012.55
2018-11-03T05:08:20.175Z,1012.57
2018-11-03T05:09:20.169Z,1012.55
2018-11-03T05:10:20.169Z,1012.55
2018-11-03T05:11:20.184Z,1012.56
2018-11-03T05:12:20.150Z,1012.54
2018-11-03T05:13:20.141Z,1012.59
2018-11-03T05:14:20.140Z,1012.59
2018-11-03T05:15:20.133Z,1012.53
2018-11-03T05:16:20.126Z,1012.54
2018-11-03T05:17:20.152Z,1012.53
2018-11-03T05:18:20.114Z,1012.54
2018-11-03T05:19:20.848Z,1012.53
2018-11-03T05:20:20.100Z,1012.52
2018-11-03T05:21:20.160Z,1012.52
2018-11-03T05:22:20.095Z,1012.47
2018-11-03T05:23:20.083Z,1012.51
2018-11-03T05:24:20.078Z,1012.47
2018-11-03T05:25:20.070Z,1012.49
2018-11-03T05:26:20.070Z,1012.47
2018-11-03T05:27:20.065Z,1012.48
2018-11-03T05:28:20.055Z,1012.48
2018-11-03T05:29:20.051Z,1012.45
2018-11-03T05:30:20.046Z,1012.45
2018-11-03T05:31:20.199Z,1012.46
2018-11-03T05:32:20.031Z,1012.44
2018-11-03T05:33:20.029Z,1012.43
2018-11-03T05:34:20.019Z,1012.43
2018-11-03T05:35:20.019Z,1012.42
2018-11-03T05:36:20.022Z,1012.43
2018-11-03T05:37:20.001Z,1012.37
2018-11-03T05:38:19.996Z,1012.45
2018-11-03T05:39:19.991Z,1012.39
2018-11-03T05:40:19.984Z,1012.38
2018-11-03T05:41:19.978Z,1012.38
2018-11-03T05:42:19.973Z,1012.39
2018-11-03T05:43:19.966Z,1012.36
2018-11-03T05:44:19.962Z,1012.34
2018-11-03T05:45:19.953Z,1012.33
2018-11-03T05:46:19.987Z,1012.31
2018-11-03T05:47:19.942Z,1012.32
2018-11-03T05:48:19.936Z,1012.33
2018-11-03T05:49:19.928Z,1012.34
2018-11-03T05:50:19.925Z,1012.37
2018-11-03T05:51:19.919Z,1012.38
2018-11-03T05:52:19.926Z,1012.37
2018-11-03T05:53:19.906Z,1012.41
2018-11-03T05:54:19.901Z,1012.43
2018-11-03T05:55:19.895Z,1012.42
2018-11-03T05:56:19.890Z,1012.44
2018-11-03T05:57:19.884Z,1012.44
2018-11-03T05:58:19.880Z,1012.46
2018-11-03T05:59:19.906Z,1012.43
2018-11-03T06:00:19.866Z,1012.48
2018-11-03T06:01:19.861Z,1012.50
2018-11-03T06:02:19.855Z,1012.48
2018-11-03T06:03:19.849Z,1012.47
2018-11-03T06:04:19.841Z,1012.48
2018-11-03T06:05:19.845Z,1012.41
2018-11-03T06:06:19.829Z,1012.45
2018-11-03T06:07:19.824Z,1012.48
2018-11-03T06:08:19.821Z,1012.47
2018-11-03T06:09:19.814Z,1012.51
2018-11-03T06:10:19.809Z,1012.50
2018-11-03T06:11:19.818Z,1012.51
2018-11-03T06:12:19.796Z,1012.53
2018-11-03T06:13:19.791Z,1012.53
2018-11-03T06:14:19.784Z,1012.58
2018-11-03T06:15:19.785Z,1012.57
2018-11-03T06:16:19.775Z,1012.55
2018-11-03T06:17:19.771Z,1012.52
2018-11-03T06:18:19.763Z,1012.52
2018-11-03T06:19:19.794Z,1012.53
2018-11-03T06:20:19.764Z,1012.51
2018-11-03T06:21:19.748Z,1012.53
2018-11-03T06:22:19.807Z,1012.55
2018-11-03T06:23:19.757Z,1012.52
2018-11-03T06:24:19.730Z,1012.55
2018-11-03T06:25:19.725Z,1012.53
2018-11-03T06:26:19.719Z,1012.54
2018-11-03T06:27:19.734Z,1012.57
2018-11-03T06:28:19.705Z,1012.54
2018-11-03T06:29:19.694Z,1012.57
2018-11-03T06:30:19.694Z,1012.58
2018-11-03T06:31:19.689Z,1012.62
2018-11-03T06:32:19.689Z,1012.60
2018-11-03T06:33:19.675Z,1012.59
2018-11-03T06:34:19.670Z,1012.63
2018-11-03T06:35:19.802Z,1012.58
2018-11-03T06:36:19.659Z,1012.63
2018-11-03T06:37:19.656Z,1012.62
2018-11-03T06:38:19.646Z,1012.65
2018-11-03T06:39:19.646Z,1012.66
2018-11-03T06:40:19.638Z,1012.69
2018-11-03T06:41:19.637Z,1012.67
2018-11-03T06:42:19.626Z,1012.72
2018-11-03T06:43:19.623Z,1012.69
2018-11-03T06:44:19.614Z,1012.71
2018-11-03T06:45:19.609Z,1012.73
2018-11-03T06:46:19.624Z,1012.75
2018-11-03T06:47:19.679Z,1012.74
2018-11-03T06:48:19.594Z,1012.77
2018-11-03T06:49:19.585Z,1012.79
2018-11-03T06:50:19.579Z,1012.80
2018-11-03T06:51:20.008Z,1012.78
2018-11-03T06:52:19.645Z,1012.79
2018-11-03T06:53:19.563Z,1012.81
2018-11-03T06:54:19.557Z,1012.81
2018-11-03T06:55:19.551Z,1012.84
2018-11-03T06:56:19.545Z,1012.86
2018-11-03T06:57:19.541Z,1012.86
2018-11-03T06:58:19.534Z,1012.85
2018-11-03T06:59:19.535Z,1012.83
2018-11-03T07:00:19.524Z,1012.87
2018-11-03T07:01:19.517Z,1012.85
2018-11-03T07:02:19.512Z,1012.89
2018-11-03T07:03:19.506Z,1012.87
2018-11-03T07:04:19.511Z,1012.89
2018-11-03T07:05:19.592Z,1012.90
2018-11-03T07:06:19.499Z,1012.90
2018-11-03T07:07:19.482Z,1012.90
2018-11-03T07:08:19.523Z,1012.91
2018-11-03T07:09:19.478Z,1012.90
2018-11-03T07:10:19.522Z,1012.93
2018-11-03T07:11:19.477Z,1012.94
2018-11-03T07:12:19.613Z,1012.98
2018-11-03T07:13:19.596Z,1012.95
2018-11-03T07:14:19.492Z,1012.95
2018-11-03T07:15:19.437Z,1012.96
2018-11-03T07:16:19.437Z,1012.93
2018-11-03T07:17:19.435Z,1012.94
2018-11-03T07:18:19.417Z,1012.93
2018-11-03T07:19:19.407Z,1012.92
2018-11-03T07:20:19.406Z,1012.91
2018-11-03T07:21:19.437Z,1012.94
2018-11-03T07:22:19.396Z,1012.95
2018-11-03T07:23:19.387Z,1012.97
2018-11-03T07:24:19.381Z,1012.94
2018-11-03T07:25:19.461Z,1012.93
2018-11-03T07:26:19.369Z,1012.97
2018-11-03T07:27:19.364Z,1012.94
2018-11-03T07:28:19.359Z,1012.97
2018-11-03T07:29:19.349Z,1012.96
2018-11-03T07:30:19.345Z,1012.97
2018-11-03T07:31:19.337Z,1013.01
2018-11-03T07:32:19.336Z,1012.99
2018-11-03T07:33:19.326Z,1013.02
2018-11-03T07:34:19.322Z,1013.00
2018-11-03T07:35:19.316Z,1013.00
2018-11-03T07:36:19.308Z,1013.01
2018-11-03T07:37:19.321Z,1013.00
2018-11-03T07:38:19.297Z,1013.00
2018-11-03T07:39:19.298Z,1013.05
2018-11-03T07:40:19.287Z,1013.04
2018-11-03T07:41:19.296Z,1013.07
2018-11-03T07:42:19.274Z,1013.07
2018-11-03T07:43:19.269Z,1013.06
2018-11-03T07:44:19.262Z,1013.07
2018-11-03T07:45:19.256Z,1013.05
2018-11-03T07:46:19.249Z,1013.08
2018-11-03T07:47:19.245Z,1013.08
2018-11-03T07:48:19.302Z,1013.10
2018-11-03T07:49:19.267Z,1013.12
2018-11-03T07:50:19.222Z,1013.16
2018-11-03T07:51:19.221Z,1013.18
2018-11-03T07:52:19.215Z,1013.16
2018-11-03T07:53:19.229Z,1013.16
2018-11-03T07:54:19.211Z,1013.16
2018-11-03T07:55:19.200Z,1013.11
2018-11-03T07:56:19.197Z,1013.14
2018-11-03T07:57:19.182Z,1013.13
2018-11-03T07:58:19.204Z,1013.13
2018-11-03T07:59:19.175Z,1013.11
2018-11-03T08:00:19.173Z,1013.09
2018-11-03T08:01:19.164Z,1013.05
2018-11-03T08:02:19.154Z,1013.09
2018-11-03T08:03:19.151Z,1013.05
2018-11-03T08:04:19.146Z,1013.09
2018-11-03T08:05:19.141Z,1013.12
2018-11-03T08:06:19.130Z,1013.10
2018-11-03T08:07:19.129Z,1013.08
2018-11-03T08:08:19.123Z,1013.05
2018-11-03T08:09:19.115Z,1013.06
2018-11-03T08:10:19.110Z,1013.04
2018-11-03T08:11:19.104Z,1013.03
2018-11-03T08:12:19.101Z,1013.02
2018-11-03T08:13:19.091Z,1013.04
2018-11-03T08:14:19.093Z,1013.05
2018-11-03T08:15:19.081Z,1013.06
2018-11-03T08:16:19.077Z,1013.06
2018-11-03T08:17:19.070Z,1013.06
2018-11-03T08:18:19.064Z,1013.12
2018-11-03T08:19:19.058Z,1013.07
2018-11-03T08:20:19.056Z,1013.12
2018-11-03T08:21:19.047Z,1013.10
2018-11-03T08:22:19.045Z,1013.12
2018-11-03T08:23:19.165Z,1013.12
2018-11-03T08:24:19.035Z,1013.09
2018-11-03T08:25:19.025Z,1013.15
2018-11-03T08:26:19.014Z,1013.17
2018-11-03T08:27:19.016Z,1013.18
2018-11-03T08:28:19.006Z,1013.18
2018-11-03T08:29:19.004Z,1013.16
2018-11-03T08:30:18.999Z,1013.17
2018-11-03T08:31:19.097Z,1013.13
2018-11-03T08:32:19.020Z,1013.17
2018-11-03T08:33:18.977Z,1013.16
2018-11-03T08:34:18.980Z,1013.16
2018-11-03T08:35:18.970Z,1013.13
2018-11-03T08:36:18.969Z,1013.08
2018-11-03T08:37:18.959Z,1013.10
2018-11-03T08:38:18.958Z,1013.06
2018-11-03T08:39:18.983Z,1013.05
2018-11-03T08:40:18.942Z,1013.04
2018-11-03T08:41:18.935Z,1013.05
2018-11-03T08:42:18.931Z,1013.04
2018-11-03T08:43:18.927Z,1013.01
2018-11-03T08:44:18.927Z,1013.01
2018-11-03T08:45:18.917Z,1013.01
2018-11-03T08:46:18.938Z,1013.01
2018-11-03T08:47:18.907Z,1013.01
2018-11-03T08:48:19.105Z,1013.00
2018-11-03T08:49:18.891Z,1013.00
2018-11-03T08:50:18.885Z,1012.98
2018-11-03T08:51:18.882Z,1013.00
2018-11-03T08:52:18.874Z,1012.97
2018-11-03T08:53:18.872Z,1012.97
2018-11-03T08:54:19.577Z,1013.00
2018-11-03T08:55:18.883Z,1012.99
2018-11-03T08:56:18.929Z,1012.99
2018-11-03T08:57:18.859Z,1012.97
2018-11-03T08:58:18.876Z,1013.01
2018-11-03T08:59:18.838Z,1013.01
2018-11-03T09:00:18.962Z,1013.01
2018-11-03T09:01:18.830Z,1013.02
2018-11-03T09:02:18.822Z,1013.05
2018-11-03T09:03:18.815Z,1013.06
2018-11-03T09:04:18.809Z,1013.06
2018-11-03T09:05:18.805Z,1013.09
2018-11-03T09:06:18.796Z,1013.08
2018-11-03T09:07:18.798Z,1013.07
2018-11-03T09:08:18.796Z,1013.07
2018-11-03T09:09:18.812Z,1013.04
2018-11-03T09:10:18.782Z,1013.03
2018-11-03T09:11:18.783Z,1013.00
2018-11-03T09:12:18.764Z,1013.03
2018-11-03T09:13:18.760Z,1013.00
2018-11-03T09:14:18.774Z,1013.01
2018-11-03T09:15:18.837Z,1013.01
2018-11-03T09:16:18.746Z,1013.02
2018-11-03T09:17:18.738Z,1012.98
2018-11-03T09:18:18.730Z,1012.98
2018-11-03T09:19:18.733Z,1012.99
2018-11-03T09:20:18.722Z,1012.97
2018-11-03T09:21:18.714Z,1012.97
2018-11-03T09:22:18.707Z,1012.94
2018-11-03T09:23:18.724Z,1012.91
2018-11-03T09:24:18.697Z,1012.91
2018-11-03T09:25:18.700Z,1012.90
2018-11-03T09:26:18.712Z,1012.87
2018-11-03T09:27:18.682Z,1012.93
2018-11-03T09:28:18.678Z,1012.88
2018-11-03T09:29:18.670Z,1012.85
2018-11-03T09:30:18.665Z,1012.86
2018-11-03T09:31:18.653Z,1012.83
2018-11-03T09:32:18.678Z,1012.78
2018-11-03T09:33:18.646Z,1012.80
2018-11-03T09:34:18.669Z,1012.78
2018-11-03T09:35:18.637Z,1012.77
2018-11-03T09:36:18.632Z,1012.75
2018-11-03T09:37:18.623Z,1012.76
2018-11-03T09:38:18.650Z,1012.77
2018-11-03T09:39:18.763Z,1012.76
2018-11-03T09:40:18.613Z,1012.76
2018-11-03T09:41:18.599Z,1012.74
2018-11-03T09:42:18.597Z,1012.74
2018-11-03T09:43:18.617Z,1012.76
2018-11-03T09:44:18.596Z,1012.77
2018-11-03T09:45:18.605Z,1012.79
2018-11-03T09:46:19.321Z,1012.81
2018-11-03T09:47:18.569Z,1012.81
2018-11-03T09:48:18.558Z,1012.80
2018-11-03T09:49:18.557Z,1012.81
2018-11-03T09:50:18.609Z,1012.83
2018-11-03T09:51:18.628Z,1012.83
2018-11-03T09:52:18.540Z,1012.84
2018-11-03T09:53:18.531Z,1012.78
2018-11-03T09:54:18.587Z,1012.79
2018-11-03T09:55:18.524Z,1012.79
2018-11-03T09:56:18.595Z,1012.85
2018-11-03T09:57:18.510Z,1012.87
2018-11-03T09:58:18.503Z,1012.87
2018-11-03T09:59:18.508Z,1012.89
2018-11-03T10:00:18.549Z,1012.91
2018-11-03T10:01:18.511Z,1012.85
2018-11-03T10:02:18.486Z,1012.85
2018-11-03T10:03:18.483Z,1012.89
2018-11-03T10:04:18.468Z,1012.84
2018-11-03T10:05:18.474Z,1012.82
2018-11-03T10:06:18.512Z,1012.80
2018-11-03T10:07:18.458Z,1012.81
2018-11-03T10:08:18.455Z,1012.81
2018-11-03T10:09:18.445Z,1012.78
2018-11-03T10:10:18.439Z,1012.80
2018-11-03T10:11:18.435Z,1012.76
2018-11-03T10:12:18.430Z,1012.79
2018-11-03T10:13:18.431Z,1012.78
2018-11-03T10:14:18.433Z,1012.73
2018-11-03T10:15:18.414Z,1012.73
2018-11-03T10:16:18.414Z,1012.72
2018-11-03T10:17:18.405Z,1012.71
2018-11-03T10:18:18.396Z,1012.72
2018-11-03T10:19:18.395Z,1012.74
2018-11-03T10:20:18.387Z,1012.75
2018-11-03T10:21:18.382Z,1012.71
2018-11-03T10:22:18.446Z,1012.73
2018-11-03T10:23:18.372Z,1012.71
2018-11-03T10:24:18.401Z,1012.66
2018-11-03T10:25:18.361Z,1012.64
2018-11-03T10:26:18.726Z,1012.62
2018-11-03T10:27:18.351Z,1012.64
2018-11-03T10:28:18.344Z,1012.64
2018-11-03T10:29:18.337Z,1012.68
2018-11-03T10:30:18.333Z,1012.65
2018-11-03T10:31:18.326Z,1012.60
2018-11-03T10:32:18.321Z,1012.59
2018-11-03T10:33:18.320Z,1012.61
2018-11-03T10:34:18.310Z,1012.60
2018-11-03T10:35:18.309Z,1012.59
2018-11-03T10:36:18.300Z,1012.57
2018-11-03T10:37:18.345Z,1012.60
2018-11-03T10:38:18.291Z,1012.55
2018-11-03T10:39:18.285Z,1012.57
2018-11-03T10:40:18.282Z,1012.54
2018-11-03T10:41:18.274Z,1012.52
2018-11-03T10:42:18.366Z,1012.52
2018-11-03T10:43:18.264Z,1012.51
2018-11-03T10:44:18.260Z,1012.53
2018-11-03T10:45:18.248Z,1012.54
2018-11-03T10:46:18.311Z,1012.55
2018-11-03T10:47:18.258Z,1012.60
2018-11-03T10:48:18.237Z,1012.60
2018-11-03T10:49:18.228Z,1012.58
2018-11-03T10:50:18.224Z,1012.58
2018-11-03T10:51:18.239Z,1012.59
2018-11-03T10:52:18.249Z,1012.57
2018-11-03T10:53:18.209Z,1012.56
2018-11-03T10:54:18.208Z,1012.53
2018-11-03T10:55:18.199Z,1012.60
2018-11-03T10:56:18.192Z,1012.54
2018-11-03T10:57:19.109Z,1012.55
2018-11-03T10:58:18.179Z,1012.56
2018-11-03T10:59:18.185Z,1012.54
2018-11-03T11:00:18.175Z,1012.58
2018-11-03T11:01:18.184Z,1012.60
2018-11-03T11:02:18.158Z,1012.56
2018-11-03T11:03:18.189Z,1012.57
2018-11-03T11:04:18.158Z,1012.54
2018-11-03T11:05:18.145Z,1012.57
2018-11-03T11:06:18.136Z,1012.55
2018-11-03T11:07:18.138Z,1012.54
2018-11-03T11:08:18.127Z,1012.59
2018-11-03T11:09:18.119Z,1012.54
2018-11-03T11:10:18.117Z,1012.52
2018-11-03T11:11:18.115Z,1012.54
2018-11-03T11:12:18.110Z,1012.52
2018-11-03T11:13:18.103Z,1012.54
2018-11-03T11:14:18.188Z,1012.53
2018-11-03T11:15:18.086Z,1012.49
2018-11-03T11:16:18.210Z,1012.44
2018-11-03T11:17:18.076Z,1012.47
2018-11-03T11:18:18.072Z,1012.47
2018-11-03T11:19:18.074Z,1012.46
2018-11-03T11:20:18.063Z,1012.42
2018-11-03T11:21:18.161Z,1012.43
2018-11-03T11:22:18.046Z,1012.38
2018-11-03T11:23:18.069Z,1012.35
2018-11-03T11:24:18.214Z,1012.38
2018-11-03T11:25:18.139Z,1012.38
2018-11-03T11:26:18.063Z,1012.38
2018-11-03T11:27:18.023Z,1012.37
2018-11-03T11:28:18.019Z,1012.35
2018-11-03T11:29:18.006Z,1012.40
2018-11-03T11:30:18.006Z,1012.36
2018-11-03T11:31:18.024Z,1012.35
2018-11-03T11:32:17.996Z,1012.32
2018-11-03T11:33:17.989Z,1012.30
2018-11-03T11:34:17.984Z,1012.30
2018-11-03T11:35:18.011Z,1012.33
2018-11-03T11:36:17.977Z,1012.30
2018-11-03T11:37:17.977Z,1012.30
2018-11-03T11:38:17.964Z,1012.28
2018-11-03T11:39:17.964Z,1012.32
2018-11-03T11:40:17.954Z,1012.25
2018-11-03T11:41:17.949Z,1012.27
2018-11-03T11:42:17.941Z,1012.27
2018-11-03T11:43:18.085Z,1012.29
2018-11-03T11:44:17.936Z,1012.22
2018-11-03T11:45:17.929Z,1012.28
2018-11-03T11:46:17.924Z,1012.27
2018-11-03T11:47:17.921Z,1012.25
2018-11-03T11:48:17.914Z,1012.26
2018-11-03T11:49:17.909Z,1012.20
2018-11-03T11:50:17.906Z,1012.20
2018-11-03T11:51:17.897Z,1012.22
2018-11-03T11:52:17.894Z,1012.18
2018-11-03T11:53:17.890Z,1012.21
2018-11-03T11:54:17.903Z,1012.21
2018-11-03T11:55:17.876Z,1012.15
2018-11-03T11:56:17.877Z,1012.16
2018-11-03T11:57:17.868Z,1012.14
2018-11-03T11:58:17.882Z,1012.16
2018-11-03T11:59:17.888Z,1012.18
2018-11-03T12:00:17.911Z,1012.16
2018-11-03T12:01:17.848Z,1012.17
2018-11-03T12:02:17.871Z,1012.17
2018-11-03T12:03:17.841Z,1012.14
2018-11-03T12:04:17.841Z,1012.12
2018-11-03T12:05:17.830Z,1012.11